sensor_id;sensor_type;location;lat;lon;timestamp;P1;durP1;ratioP1;P2;durP2;ratioP2
16115;SDS011;8162;47.104;15.432;2023-12-20T00:02:53;6.80;;;4.20;;
16115;SDS011;8162;47.104;15.432;2023-12-20T00:05:54;6.50;;;3.80;;
16115;SDS011;8162;47.104;15.432;2023-12-20T00:08:55;6.93;;;3.90;;
16115;SDS011;8162;47.104;15.432;2023-12-20T00:11:57;6.63;;;3.60;;
16115;SDS011;8162;47.104;15.432;2023-12-20T00:14:58;4.70;;;3.33;;
16115;SDS011;8162;47.104;15.432;2023-12-20T00:17:59;7.60;;;3.93;;
16115;SDS011;8162;47.104;15.432;2023-12-20T00:21:00;7.63;;;4.00;;
16115;SDS011;8162;47.104;15.432;2023-12-20T00:24:01;6.10;;;4.00;;
16115;SDS011;8162;47.104;15.432;2023-12-20T00:27:02;5.47;;;3.80;;
16115;SDS011;8162;47.104;15.432;2023-12-20T00:30:03;6.20;;;4.30;;
16115;SDS011;8162;47.104;15.432;2023-12-20T00:33:04;7.33;;;4.43;;
16115;SDS011;8162;47.104;15.432;2023-12-20T00:36:05;10.23;;;4.60;;
16115;SDS011;8162;47.104;15.432;2023-12-20T00:39:06;6.07;;;3.97;;
16115;SDS011;8162;47.104;15.432;2023-12-20T00:42:07;6.03;;;4.27;;
16115;SDS011;8162;47.104;15.432;2023-12-20T00:45:07;5.50;;;3.53;;
16115;SDS011;8162;47.104;15.432;2023-12-20T00:48:08;6.23;;;4.17;;
16115;SDS011;8162;47.104;15.432;2023-12-20T00:51:09;5.57;;;3.63;;
16115;SDS011;8162;47.104;15.432;2023-12-20T00:54:10;7.47;;;4.53;;
16115;SDS011;8162;47.104;15.432;2023-12-20T00:57:11;4.67;;;3.80;;
16115;SDS011;8162;47.104;15.432;2023-12-20T01:00:12;8.10;;;3.90;;
16115;SDS011;8162;47.104;15.432;2023-12-20T01:03:13;5.37;;;3.73;;
16115;SDS011;8162;47.104;15.432;2023-12-20T01:06:15;5.73;;;3.80;;
16115;SDS011;8162;47.104;15.432;2023-12-20T01:09:16;5.87;;;3.60;;
16115;SDS011;8162;47.104;15.432;2023-12-20T01:12:18;7.17;;;4.17;;
16115;SDS011;8162;47.104;15.432;2023-12-20T01:15:20;4.80;;;3.63;;
16115;SDS011;8162;47.104;15.432;2023-12-20T01:18:21;5.93;;;4.13;;
16115;SDS011;8162;47.104;15.432;2023-12-20T01:21:22;5.77;;;4.03;;
16115;SDS011;8162;47.104;15.432;2023-12-20T01:24:23;5.57;;;3.77;;
16115;SDS011;8162;47.104;15.432;2023-12-20T01:27:24;7.87;;;4.23;;
16115;SDS011;8162;47.104;15.432;2023-12-20T01:30:25;7.37;;;4.90;;
16115;SDS011;8162;47.104;15.432;2023-12-20T01:33:26;7.27;;;4.57;;
16115;SDS011;8162;47.104;15.432;2023-12-20T01:36:27;5.63;;;4.10;;
16115;SDS011;8162;47.104;15.432;2023-12-20T01:39:29;7.77;;;3.97;;
16115;SDS011;8162;47.104;15.432;2023-12-20T01:42:30;5.77;;;4.17;;
16115;SDS011;8162;47.104;15.432;2023-12-20T01:45:31;5.27;;;4.13;;
16115;SDS011;8162;47.104;15.432;2023-12-20T01:48:32;6.47;;;3.93;;
16115;SDS011;8162;47.104;15.432;2023-12-20T01:51:33;4.70;;;3.60;;
16115;SDS011;8162;47.104;15.432;2023-12-20T01:54:34;5.83;;;4.20;;
16115;SDS011;8162;47.104;15.432;2023-12-20T01:57:36;7.50;;;4.60;;
16115;SDS011;8162;47.104;15.432;2023-12-20T02:00:37;7.43;;;4.40;;
16115;SDS011;8162;47.104;15.432;2023-12-20T02:03:41;6.77;;;3.90;;
16115;SDS011;8162;47.104;15.432;2023-12-20T02:06:43;7.43;;;4.20;;
16115;SDS011;8162;47.104;15.432;2023-12-20T02:09:44;5.70;;;3.90;;
16115;SDS011;8162;47.104;15.432;2023-12-20T02:12:45;5.20;;;3.63;;
16115;SDS011;8162;47.104;15.432;2023-12-20T02:15:46;6.13;;;3.93;;
16115;SDS011;8162;47.104;15.432;2023-12-20T02:18:47;7.23;;;4.13;;
16115;SDS011;8162;47.104;15.432;2023-12-20T02:21:48;5.33;;;4.27;;
16115;SDS011;8162;47.104;15.432;2023-12-20T02:24:49;6.40;;;4.07;;
16115;SDS011;8162;47.104;15.432;2023-12-20T02:27:50;4.83;;;3.20;;
16115;SDS011;8162;47.104;15.432;2023-12-20T02:30:51;7.53;;;4.00;;
16115;SDS011;8162;47.104;15.432;2023-12-20T02:33:52;5.23;;;3.83;;
16115;SDS011;8162;47.104;15.432;2023-12-20T02:36:53;6.47;;;4.37;;
16115;SDS011;8162;47.104;15.432;2023-12-20T02:39:54;8.63;;;4.07;;
16115;SDS011;8162;47.104;15.432;2023-12-20T02:42:55;8.30;;;4.80;;
16115;SDS011;8162;47.104;15.432;2023-12-20T02:45:56;5.67;;;3.73;;
16115;SDS011;8162;47.104;15.432;2023-12-20T02:48:56;5.40;;;3.77;;
16115;SDS011;8162;47.104;15.432;2023-12-20T02:51:57;4.13;;;3.20;;
16115;SDS011;8162;47.104;15.432;2023-12-20T02:54:58;5.90;;;3.57;;
16115;SDS011;8162;47.104;15.432;2023-12-20T02:57:58;4.47;;;3.20;;
16115;SDS011;8162;47.104;15.432;2023-12-20T03:00:59;5.23;;;3.80;;
16115;SDS011;8162;47.104;15.432;2023-12-20T03:04:00;6.37;;;3.77;;
16115;SDS011;8162;47.104;15.432;2023-12-20T03:07:01;7.17;;;4.03;;
16115;SDS011;8162;47.104;15.432;2023-12-20T03:10:02;6.07;;;3.77;;
16115;SDS011;8162;47.104;15.432;2023-12-20T03:13:03;8.70;;;4.07;;
16115;SDS011;8162;47.104;15.432;2023-12-20T03:16:10;5.67;;;3.80;;
16115;SDS011;8162;47.104;15.432;2023-12-20T03:19:12;4.97;;;3.40;;
16115;SDS011;8162;47.104;15.432;2023-12-20T03:22:12;5.40;;;3.90;;
16115;SDS011;8162;47.104;15.432;2023-12-20T03:25:13;7.33;;;4.17;;
16115;SDS011;8162;47.104;15.432;2023-12-20T03:28:14;6.23;;;3.73;;
16115;SDS011;8162;47.104;15.432;2023-12-20T03:31:15;7.50;;;3.00;;
16115;SDS011;8162;47.104;15.432;2023-12-20T03:34:16;6.27;;;3.87;;
16115;SDS011;8162;47.104;15.432;2023-12-20T03:37:17;4.63;;;3.50;;
16115;SDS011;8162;47.104;15.432;2023-12-20T03:40:17;6.47;;;3.73;;
16115;SDS011;8162;47.104;15.432;2023-12-20T03:43:18;5.83;;;3.57;;
16115;SDS011;8162;47.104;15.432;2023-12-20T03:46:19;6.00;;;3.60;;
16115;SDS011;8162;47.104;15.432;2023-12-20T03:49:19;4.80;;;3.53;;
16115;SDS011;8162;47.104;15.432;2023-12-20T03:52:20;6.77;;;3.73;;
16115;SDS011;8162;47.104;15.432;2023-12-20T03:55:21;6.03;;;3.40;;
16115;SDS011;8162;47.104;15.432;2023-12-20T03:58:22;5.27;;;4.03;;
16115;SDS011;8162;47.104;15.432;2023-12-20T04:01:22;7.37;;;3.80;;
16115;SDS011;8162;47.104;15.432;2023-12-20T04:04:23;5.10;;;3.40;;
16115;SDS011;8162;47.104;15.432;2023-12-20T04:07:24;5.73;;;3.37;;
16115;SDS011;8162;47.104;15.432;2023-12-20T04:10:24;6.07;;;3.73;;
16115;SDS011;8162;47.104;15.432;2023-12-20T04:13:25;6.20;;;4.30;;
16115;SDS011;8162;47.104;15.432;2023-12-20T04:16:26;7.93;;;4.80;;
16115;SDS011;8162;47.104;15.432;2023-12-20T04:19:26;5.67;;;3.83;;
16115;SDS011;8162;47.104;15.432;2023-12-20T04:22:27;6.10;;;4.07;;
16115;SDS011;8162;47.104;15.432;2023-12-20T04:25:28;6.73;;;4.00;;
16115;SDS011;8162;47.104;15.432;2023-12-20T04:28:28;5.37;;;4.23;;
16115;SDS011;8162;47.104;15.432;2023-12-20T04:31:31;5.40;;;3.77;;
16115;SDS011;8162;47.104;15.432;2023-12-20T04:34:32;6.70;;;4.17;;
16115;SDS011;8162;47.104;15.432;2023-12-20T04:37:33;4.60;;;3.10;;
16115;SDS011;8162;47.104;15.432;2023-12-20T04:40:33;5.67;;;4.00;;
16115;SDS011;8162;47.104;15.432;2023-12-20T04:43:34;7.93;;;5.03;;
16115;SDS011;8162;47.104;15.432;2023-12-20T04:46:35;6.20;;;4.03;;
16115;SDS011;8162;47.104;15.432;2023-12-20T04:49:35;6.73;;;4.57;;
16115;SDS011;8162;47.104;15.432;2023-12-20T04:52:36;5.57;;;4.10;;
16115;SDS011;8162;47.104;15.432;2023-12-20T04:55:37;6.07;;;4.43;;
16115;SDS011;8162;47.104;15.432;2023-12-20T04:58:39;5.20;;;3.80;;
16115;SDS011;8162;47.104;15.432;2023-12-20T05:01:39;4.83;;;3.77;;
16115;SDS011;8162;47.104;15.432;2023-12-20T05:04:40;6.57;;;4.30;;
16115;SDS011;8162;47.104;15.432;2023-12-20T05:07:41;8.27;;;3.97;;
16115;SDS011;8162;47.104;15.432;2023-12-20T05:10:42;6.40;;;4.23;;
16115;SDS011;8162;47.104;15.432;2023-12-20T05:13:43;6.13;;;3.73;;
16115;SDS011;8162;47.104;15.432;2023-12-20T05:16:43;6.23;;;3.60;;
16115;SDS011;8162;47.104;15.432;2023-12-20T05:19:44;6.63;;;4.50;;
16115;SDS011;8162;47.104;15.432;2023-12-20T05:22:45;5.70;;;4.07;;
16115;SDS011;8162;47.104;15.432;2023-12-20T05:25:45;7.63;;;4.40;;
16115;SDS011;8162;47.104;15.432;2023-12-20T05:28:46;5.70;;;3.87;;
16115;SDS011;8162;47.104;15.432;2023-12-20T05:31:47;8.07;;;3.90;;
16115;SDS011;8162;47.104;15.432;2023-12-20T05:34:47;6.07;;;3.23;;
16115;SDS011;8162;47.104;15.432;2023-12-20T05:37:48;6.00;;;4.20;;
16115;SDS011;8162;47.104;15.432;2023-12-20T05:40:49;5.70;;;4.07;;
16115;SDS011;8162;47.104;15.432;2023-12-20T05:43:50;6.13;;;4.17;;
16115;SDS011;8162;47.104;15.432;2023-12-20T05:46:51;5.60;;;4.13;;
16115;SDS011;8162;47.104;15.432;2023-12-20T05:49:51;5.47;;;4.00;;
16115;SDS011;8162;47.104;15.432;2023-12-20T05:52:53;8.83;;;4.13;;
16115;SDS011;8162;47.104;15.432;2023-12-20T05:55:53;6.40;;;3.80;;
16115;SDS011;8162;47.104;15.432;2023-12-20T05:58:54;4.90;;;3.40;;
16115;SDS011;8162;47.104;15.432;2023-12-20T06:01:55;5.00;;;3.60;;
16115;SDS011;8162;47.104;15.432;2023-12-20T06:04:56;5.77;;;4.10;;
16115;SDS011;8162;47.104;15.432;2023-12-20T06:07:57;5.60;;;4.10;;
16115;SDS011;8162;47.104;15.432;2023-12-20T06:11:01;9.30;;;4.50;;
16115;SDS011;8162;47.104;15.432;2023-12-20T06:14:02;9.27;;;4.50;;
16115;SDS011;8162;47.104;15.432;2023-12-20T06:17:02;7.20;;;3.93;;
16115;SDS011;8162;47.104;15.432;2023-12-20T06:20:03;7.93;;;4.67;;
16115;SDS011;8162;47.104;15.432;2023-12-20T06:23:07;6.73;;;3.93;;
16115;SDS011;8162;47.104;15.432;2023-12-20T06:26:08;6.87;;;4.20;;
16115;SDS011;8162;47.104;15.432;2023-12-20T06:29:08;6.40;;;3.97;;
16115;SDS011;8162;47.104;15.432;2023-12-20T06:32:09;6.07;;;3.87;;
16115;SDS011;8162;47.104;15.432;2023-12-20T06:35:10;5.00;;;3.47;;
16115;SDS011;8162;47.104;15.432;2023-12-20T06:38:11;5.17;;;3.87;;
16115;SDS011;8162;47.104;15.432;2023-12-20T06:41:13;5.67;;;3.97;;
16115;SDS011;8162;47.104;15.432;2023-12-20T06:44:14;5.97;;;4.57;;
16115;SDS011;8162;47.104;15.432;2023-12-20T06:47:15;7.03;;;4.30;;
16115;SDS011;8162;47.104;15.432;2023-12-20T06:50:15;5.30;;;3.53;;
16115;SDS011;8162;47.104;15.432;2023-12-20T06:53:16;5.50;;;3.80;;
16115;SDS011;8162;47.104;15.432;2023-12-20T06:56:17;7.57;;;4.93;;
16115;SDS011;8162;47.104;15.432;2023-12-20T06:59:17;5.23;;;4.00;;
16115;SDS011;8162;47.104;15.432;2023-12-20T07:02:18;6.70;;;4.43;;
16115;SDS011;8162;47.104;15.432;2023-12-20T07:05:19;7.73;;;4.13;;
16115;SDS011;8162;47.104;15.432;2023-12-20T07:08:20;6.47;;;4.40;;
16115;SDS011;8162;47.104;15.432;2023-12-20T07:11:20;9.23;;;4.00;;
16115;SDS011;8162;47.104;15.432;2023-12-20T07:14:21;6.57;;;3.80;;
16115;SDS011;8162;47.104;15.432;2023-12-20T07:17:22;5.63;;;4.07;;
16115;SDS011;8162;47.104;15.432;2023-12-20T07:20:23;7.13;;;4.90;;
16115;SDS011;8162;47.104;15.432;2023-12-20T07:23:23;7.73;;;5.00;;
16115;SDS011;8162;47.104;15.432;2023-12-20T07:26:25;9.53;;;5.57;;
16115;SDS011;8162;47.104;15.432;2023-12-20T07:29:26;6.70;;;4.60;;
16115;SDS011;8162;47.104;15.432;2023-12-20T07:32:27;7.33;;;4.80;;
16115;SDS011;8162;47.104;15.432;2023-12-20T07:35:28;9.23;;;5.03;;
16115;SDS011;8162;47.104;15.432;2023-12-20T07:38:29;6.73;;;4.57;;
16115;SDS011;8162;47.104;15.432;2023-12-20T07:41:30;5.90;;;4.40;;
16115;SDS011;8162;47.104;15.432;2023-12-20T07:44:31;6.37;;;4.30;;
16115;SDS011;8162;47.104;15.432;2023-12-20T07:47:33;6.73;;;3.87;;
16115;SDS011;8162;47.104;15.432;2023-12-20T07:50:34;5.90;;;3.90;;
16115;SDS011;8162;47.104;15.432;2023-12-20T07:53:35;5.57;;;4.10;;
16115;SDS011;8162;47.104;15.432;2023-12-20T07:56:36;6.97;;;4.17;;
16115;SDS011;8162;47.104;15.432;2023-12-20T07:59:37;6.23;;;4.20;;
16115;SDS011;8162;47.104;15.432;2023-12-20T08:02:38;6.60;;;4.27;;
16115;SDS011;8162;47.104;15.432;2023-12-20T08:05:39;6.13;;;4.33;;
16115;SDS011;8162;47.104;15.432;2023-12-20T08:08:40;5.70;;;4.50;;
16115;SDS011;8162;47.104;15.432;2023-12-20T08:11:44;9.57;;;4.60;;
16115;SDS011;8162;47.104;15.432;2023-12-20T08:14:45;8.37;;;5.33;;
16115;SDS011;8162;47.104;15.432;2023-12-20T08:17:46;7.70;;;5.43;;
16115;SDS011;8162;47.104;15.432;2023-12-20T08:20:47;9.37;;;5.93;;
16115;SDS011;8162;47.104;15.432;2023-12-20T08:23:49;8.07;;;5.90;;
16115;SDS011;8162;47.104;15.432;2023-12-20T08:26:50;5.43;;;4.53;;
16115;SDS011;8162;47.104;15.432;2023-12-20T08:29:51;9.27;;;5.67;;
16115;SDS011;8162;47.104;15.432;2023-12-20T08:32:52;6.87;;;5.00;;
16115;SDS011;8162;47.104;15.432;2023-12-20T08:35:53;6.60;;;4.80;;
16115;SDS011;8162;47.104;15.432;2023-12-20T08:38:54;6.03;;;4.97;;
16115;SDS011;8162;47.104;15.432;2023-12-20T08:41:55;5.17;;;4.03;;
16115;SDS011;8162;47.104;15.432;2023-12-20T08:44:56;5.70;;;4.27;;
16115;SDS011;8162;47.104;15.432;2023-12-20T08:47:58;7.67;;;4.87;;
16115;SDS011;8162;47.104;15.432;2023-12-20T08:50:59;6.10;;;3.93;;
16115;SDS011;8162;47.104;15.432;2023-12-20T08:54:00;7.33;;;5.07;;
16115;SDS011;8162;47.104;15.432;2023-12-20T08:57:02;7.30;;;4.30;;
16115;SDS011;8162;47.104;15.432;2023-12-20T09:00:03;6.40;;;4.37;;
16115;SDS011;8162;47.104;15.432;2023-12-20T09:03:04;8.03;;;4.80;;
16115;SDS011;8162;47.104;15.432;2023-12-20T09:06:06;8.33;;;4.77;;
16115;SDS011;8162;47.104;15.432;2023-12-20T09:09:07;6.47;;;4.47;;
16115;SDS011;8162;47.104;15.432;2023-12-20T09:12:13;7.53;;;4.93;;
16115;SDS011;8162;47.104;15.432;2023-12-20T09:15:14;5.97;;;4.00;;
16115;SDS011;8162;47.104;15.432;2023-12-20T09:18:15;6.13;;;4.13;;
16115;SDS011;8162;47.104;15.432;2023-12-20T09:21:16;6.53;;;4.17;;
16115;SDS011;8162;47.104;15.432;2023-12-20T09:24:17;6.17;;;3.87;;
16115;SDS011;8162;47.104;15.432;2023-12-20T09:27:18;4.23;;;3.83;;
16115;SDS011;8162;47.104;15.432;2023-12-20T09:30:18;8.23;;;4.13;;
16115;SDS011;8162;47.104;15.432;2023-12-20T09:33:20;5.70;;;4.07;;
16115;SDS011;8162;47.104;15.432;2023-12-20T09:36:21;6.63;;;4.60;;
16115;SDS011;8162;47.104;15.432;2023-12-20T09:39:21;7.33;;;4.57;;
16115;SDS011;8162;47.104;15.432;2023-12-20T09:42:33;11.57;;;4.93;;
16115;SDS011;8162;47.104;15.432;2023-12-20T09:45:49;5.90;;;4.27;;
16115;SDS011;8162;47.104;15.432;2023-12-20T09:48:53;7.33;;;4.63;;
16115;SDS011;8162;47.104;15.432;2023-12-20T09:51:54;6.90;;;4.60;;
16115;SDS011;8162;47.104;15.432;2023-12-20T09:54:56;6.20;;;4.77;;
16115;SDS011;8162;47.104;15.432;2023-12-20T09:57:57;7.57;;;4.93;;
16115;SDS011;8162;47.104;15.432;2023-12-20T10:01:00;5.80;;;4.30;;
16115;SDS011;8162;47.104;15.432;2023-12-20T10:04:03;8.50;;;4.33;;
16115;SDS011;8162;47.104;15.432;2023-12-20T10:07:09;10.30;;;5.10;;
16115;SDS011;8162;47.104;15.432;2023-12-20T10:10:10;11.33;;;5.90;;
16115;SDS011;8162;47.104;15.432;2023-12-20T10:13:13;8.17;;;5.60;;
16115;SDS011;8162;47.104;15.432;2023-12-20T10:16:15;11.87;;;5.53;;
16115;SDS011;8162;47.104;15.432;2023-12-20T10:19:19;11.00;;;5.00;;
16115;SDS011;8162;47.104;15.432;2023-12-20T10:22:20;7.73;;;5.30;;
16115;SDS011;8162;47.104;15.432;2023-12-20T10:25:21;6.33;;;4.33;;
16115;SDS011;8162;47.104;15.432;2023-12-20T10:28:22;5.93;;;4.30;;
16115;SDS011;8162;47.104;15.432;2023-12-20T10:34:32;7.67;;;4.90;;
16115;SDS011;8162;47.104;15.432;2023-12-20T10:37:36;5.37;;;3.97;;
16115;SDS011;8162;47.104;15.432;2023-12-20T10:40:37;4.77;;;3.70;;
16115;SDS011;8162;47.104;15.432;2023-12-20T10:43:38;5.60;;;4.20;;
16115;SDS011;8162;47.104;15.432;2023-12-20T10:46:40;7.10;;;4.30;;
16115;SDS011;8162;47.104;15.432;2023-12-20T10:49:47;7.33;;;4.93;;
16115;SDS011;8162;47.104;15.432;2023-12-20T10:52:48;7.23;;;5.10;;
16115;SDS011;8162;47.104;15.432;2023-12-20T10:55:55;7.63;;;5.47;;
16115;SDS011;8162;47.104;15.432;2023-12-20T10:58:59;8.10;;;5.10;;
16115;SDS011;8162;47.104;15.432;2023-12-20T11:02:04;7.73;;;5.50;;
16115;SDS011;8162;47.104;15.432;2023-12-20T11:08:48;7.10;;;5.30;;
16115;SDS011;8162;47.104;15.432;2023-12-20T11:12:02;9.53;;;4.70;;
16115;SDS011;8162;47.104;15.432;2023-12-20T11:15:21;8.13;;;4.93;;
16115;SDS011;8162;47.104;15.432;2023-12-20T11:18:28;6.90;;;4.43;;
16115;SDS011;8162;47.104;15.432;2023-12-20T11:21:30;6.03;;;4.33;;
16115;SDS011;8162;47.104;15.432;2023-12-20T11:24:31;10.17;;;5.63;;
16115;SDS011;8162;47.104;15.432;2023-12-20T11:31:08;8.87;;;5.03;;
16115;SDS011;8162;47.104;15.432;2023-12-20T11:34:15;7.10;;;5.20;;
16115;SDS011;8162;47.104;15.432;2023-12-20T11:37:17;9.60;;;5.23;;
16115;SDS011;8162;47.104;15.432;2023-12-20T11:40:20;7.33;;;5.70;;
16115;SDS011;8162;47.104;15.432;2023-12-20T11:46:38;6.90;;;5.00;;
16115;SDS011;8162;47.104;15.432;2023-12-20T11:49:39;9.50;;;5.00;;
16115;SDS011;8162;47.104;15.432;2023-12-20T11:52:40;14.13;;;6.53;;
16115;SDS011;8162;47.104;15.432;2023-12-20T11:55:41;9.00;;;5.93;;
16115;SDS011;8162;47.104;15.432;2023-12-20T11:58:41;13.90;;;5.90;;
16115;SDS011;8162;47.104;15.432;2023-12-20T12:01:52;5.77;;;4.50;;
16115;SDS011;8162;47.104;15.432;2023-12-20T12:04:53;7.20;;;5.10;;
16115;SDS011;8162;47.104;15.432;2023-12-20T12:07:53;7.73;;;4.47;;
16115;SDS011;8162;47.104;15.432;2023-12-20T12:10:54;8.00;;;4.73;;
16115;SDS011;8162;47.104;15.432;2023-12-20T12:13:55;8.33;;;4.90;;
16115;SDS011;8162;47.104;15.432;2023-12-20T12:16:56;7.23;;;4.77;;
16115;SDS011;8162;47.104;15.432;2023-12-20T12:20:03;4.77;;;3.80;;
16115;SDS011;8162;47.104;15.432;2023-12-20T12:23:05;8.77;;;4.97;;
16115;SDS011;8162;47.104;15.432;2023-12-20T12:26:06;16.07;;;6.63;;
16115;SDS011;8162;47.104;15.432;2023-12-20T12:29:07;14.97;;;8.37;;
16115;SDS011;8162;47.104;15.432;2023-12-20T12:32:09;19.73;;;10.60;;
16115;SDS011;8162;47.104;15.432;2023-12-20T12:35:10;34.93;;;14.83;;
16115;SDS011;8162;47.104;15.432;2023-12-20T12:38:11;29.97;;;14.10;;
16115;SDS011;8162;47.104;15.432;2023-12-20T12:41:12;18.33;;;11.67;;
16115;SDS011;8162;47.104;15.432;2023-12-20T12:44:15;22.30;;;12.30;;
16115;SDS011;8162;47.104;15.432;2023-12-20T12:47:16;16.37;;;9.27;;
16115;SDS011;8162;47.104;15.432;2023-12-20T12:50:16;14.47;;;7.73;;
16115;SDS011;8162;47.104;15.432;2023-12-20T12:53:17;10.90;;;7.57;;
16115;SDS011;8162;47.104;15.432;2023-12-20T12:56:18;13.17;;;8.13;;
16115;SDS011;8162;47.104;15.432;2023-12-20T12:59:18;13.77;;;8.17;;
16115;SDS011;8162;47.104;15.432;2023-12-20T13:02:19;15.23;;;7.77;;
16115;SDS011;8162;47.104;15.432;2023-12-20T13:05:20;12.73;;;8.33;;
16115;SDS011;8162;47.104;15.432;2023-12-20T13:08:21;11.77;;;7.60;;
16115;SDS011;8162;47.104;15.432;2023-12-20T13:11:21;10.77;;;7.53;;
16115;SDS011;8162;47.104;15.432;2023-12-20T13:14:22;15.60;;;8.73;;
16115;SDS011;8162;47.104;15.432;2023-12-20T13:17:26;11.17;;;7.50;;
16115;SDS011;8162;47.104;15.432;2023-12-20T13:20:27;13.33;;;8.30;;
16115;SDS011;8162;47.104;15.432;2023-12-20T13:23:27;11.87;;;7.70;;
16115;SDS011;8162;47.104;15.432;2023-12-20T13:26:28;14.57;;;7.27;;
16115;SDS011;8162;47.104;15.432;2023-12-20T13:29:29;10.50;;;6.80;;
16115;SDS011;8162;47.104;15.432;2023-12-20T13:32:29;10.83;;;6.73;;
16115;SDS011;8162;47.104;15.432;2023-12-20T13:35:31;11.37;;;7.80;;
16115;SDS011;8162;47.104;15.432;2023-12-20T13:38:32;13.77;;;6.40;;
16115;SDS011;8162;47.104;15.432;2023-12-20T13:41:33;12.27;;;6.93;;
16115;SDS011;8162;47.104;15.432;2023-12-20T13:44:33;14.53;;;8.60;;
16115;SDS011;8162;47.104;15.432;2023-12-20T13:47:34;11.97;;;7.27;;
16115;SDS011;8162;47.104;15.432;2023-12-20T13:50:35;10.57;;;7.20;;
16115;SDS011;8162;47.104;15.432;2023-12-20T13:53:36;19.03;;;8.60;;
16115;SDS011;8162;47.104;15.432;2023-12-20T13:56:36;11.37;;;7.43;;
16115;SDS011;8162;47.104;15.432;2023-12-20T13:59:37;12.33;;;7.70;;
16115;SDS011;8162;47.104;15.432;2023-12-20T14:02:38;14.90;;;8.47;;
16115;SDS011;8162;47.104;15.432;2023-12-20T14:05:38;13.53;;;8.10;;
16115;SDS011;8162;47.104;15.432;2023-12-20T14:08:39;15.20;;;8.53;;
16115;SDS011;8162;47.104;15.432;2023-12-20T14:11:40;10.57;;;7.00;;
16115;SDS011;8162;47.104;15.432;2023-12-20T14:14:41;13.87;;;7.30;;
16115;SDS011;8162;47.104;15.432;2023-12-20T14:17:42;17.13;;;8.23;;
16115;SDS011;8162;47.104;15.432;2023-12-20T14:20:42;8.67;;;6.73;;
16115;SDS011;8162;47.104;15.432;2023-12-20T14:23:44;14.50;;;9.13;;
16115;SDS011;8162;47.104;15.432;2023-12-20T14:26:46;13.47;;;7.97;;
16115;SDS011;8162;47.104;15.432;2023-12-20T14:29:47;13.23;;;7.33;;
16115;SDS011;8162;47.104;15.432;2023-12-20T14:32:47;15.10;;;7.37;;
16115;SDS011;8162;47.104;15.432;2023-12-20T14:35:48;11.47;;;7.33;;
16115;SDS011;8162;47.104;15.432;2023-12-20T14:38:49;12.50;;;7.60;;
16115;SDS011;8162;47.104;15.432;2023-12-20T14:41:50;11.73;;;7.80;;
16115;SDS011;8162;47.104;15.432;2023-12-20T14:44:51;12.67;;;7.30;;
16115;SDS011;8162;47.104;15.432;2023-12-20T14:47:52;10.87;;;7.67;;
16115;SDS011;8162;47.104;15.432;2023-12-20T14:50:53;12.13;;;7.43;;
16115;SDS011;8162;47.104;15.432;2023-12-20T14:53:53;8.43;;;6.47;;
16115;SDS011;8162;47.104;15.432;2023-12-20T14:56:54;15.63;;;8.03;;
16115;SDS011;8162;47.104;15.432;2023-12-20T14:59:56;16.37;;;8.63;;
16115;SDS011;8162;47.104;15.432;2023-12-20T15:02:57;15.53;;;8.40;;
16115;SDS011;8162;47.104;15.432;2023-12-20T15:05:57;9.97;;;7.10;;
16115;SDS011;8162;47.104;15.432;2023-12-20T15:08:58;11.97;;;8.07;;
16115;SDS011;8162;47.104;15.432;2023-12-20T15:12:00;14.37;;;8.37;;
16115;SDS011;8162;47.104;15.432;2023-12-20T15:15:00;15.97;;;8.30;;
16115;SDS011;8162;47.104;15.432;2023-12-20T15:18:01;17.13;;;7.77;;
16115;SDS011;8162;47.104;15.432;2023-12-20T15:21:05;13.53;;;8.07;;
16115;SDS011;8162;47.104;15.432;2023-12-20T15:24:06;14.03;;;8.37;;
16115;SDS011;8162;47.104;15.432;2023-12-20T15:27:13;8.83;;;6.43;;
16115;SDS011;8162;47.104;15.432;2023-12-20T15:30:14;8.00;;;6.00;;
16115;SDS011;8162;47.104;15.432;2023-12-20T15:33:15;12.57;;;6.73;;
16115;SDS011;8162;47.104;15.432;2023-12-20T15:36:16;10.70;;;7.10;;
16115;SDS011;8162;47.104;15.432;2023-12-20T15:39:17;13.87;;;6.73;;
16115;SDS011;8162;47.104;15.432;2023-12-20T15:42:17;13.97;;;9.53;;
16115;SDS011;8162;47.104;15.432;2023-12-20T15:45:19;15.20;;;8.73;;
16115;SDS011;8162;47.104;15.432;2023-12-20T15:48:20;17.03;;;9.60;;
16115;SDS011;8162;47.104;15.432;2023-12-20T15:51:21;9.23;;;7.37;;
16115;SDS011;8162;47.104;15.432;2023-12-20T15:54:22;12.70;;;7.97;;
16115;SDS011;8162;47.104;15.432;2023-12-20T15:57:23;12.33;;;7.03;;
16115;SDS011;8162;47.104;15.432;2023-12-20T16:00:23;13.40;;;6.77;;
16115;SDS011;8162;47.104;15.432;2023-12-20T16:03:24;9.47;;;5.97;;
16115;SDS011;8162;47.104;15.432;2023-12-20T16:06:25;8.80;;;5.43;;
16115;SDS011;8162;47.104;15.432;2023-12-20T16:09:26;13.23;;;5.23;;
16115;SDS011;8162;47.104;15.432;2023-12-20T16:12:26;9.43;;;5.67;;
16115;SDS011;8162;47.104;15.432;2023-12-20T16:15:27;12.67;;;5.93;;
16115;SDS011;8162;47.104;15.432;2023-12-20T16:18:28;8.80;;;5.90;;
16115;SDS011;8162;47.104;15.432;2023-12-20T16:21:29;8.83;;;6.30;;
16115;SDS011;8162;47.104;15.432;2023-12-20T16:24:29;13.33;;;6.70;;
16115;SDS011;8162;47.104;15.432;2023-12-20T16:27:31;13.30;;;6.93;;
16115;SDS011;8162;47.104;15.432;2023-12-20T16:30:33;16.97;;;9.30;;
16115;SDS011;8162;47.104;15.432;2023-12-20T16:33:34;13.27;;;9.30;;
16115;SDS011;8162;47.104;15.432;2023-12-20T16:36:48;13.80;;;10.30;;
16115;SDS011;8162;47.104;15.432;2023-12-20T16:39:50;14.03;;;9.63;;
16115;SDS011;8162;47.104;15.432;2023-12-20T16:42:52;13.83;;;8.50;;
16115;SDS011;8162;47.104;15.432;2023-12-20T16:45:52;16.33;;;9.13;;
16115;SDS011;8162;47.104;15.432;2023-12-20T16:48:54;12.83;;;7.93;;
16115;SDS011;8162;47.104;15.432;2023-12-20T16:51:54;16.10;;;9.17;;
16115;SDS011;8162;47.104;15.432;2023-12-20T16:54:55;13.23;;;8.13;;
16115;SDS011;8162;47.104;15.432;2023-12-20T16:57:55;13.43;;;8.73;;
16115;SDS011;8162;47.104;15.432;2023-12-20T17:00:56;15.53;;;8.77;;
16115;SDS011;8162;47.104;15.432;2023-12-20T17:03:58;12.53;;;8.03;;
16115;SDS011;8162;47.104;15.432;2023-12-20T17:06:58;12.60;;;8.43;;
16115;SDS011;8162;47.104;15.432;2023-12-20T17:09:59;15.63;;;7.77;;
16115;SDS011;8162;47.104;15.432;2023-12-20T17:13:00;15.40;;;8.53;;
16115;SDS011;8162;47.104;15.432;2023-12-20T17:16:00;10.73;;;7.20;;
16115;SDS011;8162;47.104;15.432;2023-12-20T17:19:01;14.43;;;8.30;;
16115;SDS011;8162;47.104;15.432;2023-12-20T17:22:04;13.10;;;8.43;;
16115;SDS011;8162;47.104;15.432;2023-12-20T17:25:05;13.80;;;8.23;;
16115;SDS011;8162;47.104;15.432;2023-12-20T17:28:06;15.97;;;9.40;;
16115;SDS011;8162;47.104;15.432;2023-12-20T17:31:07;13.17;;;8.23;;
16115;SDS011;8162;47.104;15.432;2023-12-20T17:34:08;13.63;;;8.90;;
16115;SDS011;8162;47.104;15.432;2023-12-20T17:37:11;15.33;;;9.87;;
16115;SDS011;8162;47.104;15.432;2023-12-20T17:40:12;12.00;;;8.37;;
16115;SDS011;8162;47.104;15.432;2023-12-20T17:43:12;16.83;;;9.10;;
16115;SDS011;8162;47.104;15.432;2023-12-20T17:46:13;18.57;;;11.00;;
16115;SDS011;8162;47.104;15.432;2023-12-20T17:49:14;17.93;;;11.67;;
16115;SDS011;8162;47.104;15.432;2023-12-20T17:52:15;16.00;;;9.97;;
16115;SDS011;8162;47.104;15.432;2023-12-20T17:55:16;16.00;;;10.37;;
16115;SDS011;8162;47.104;15.432;2023-12-20T17:58:16;17.40;;;10.53;;
16115;SDS011;8162;47.104;15.432;2023-12-20T18:01:17;21.10;;;11.50;;
16115;SDS011;8162;47.104;15.432;2023-12-20T18:04:18;17.87;;;11.57;;
16115;SDS011;8162;47.104;15.432;2023-12-20T18:07:20;19.93;;;10.57;;
16115;SDS011;8162;47.104;15.432;2023-12-20T18:10:21;18.67;;;11.00;;
16115;SDS011;8162;47.104;15.432;2023-12-20T18:13:23;16.97;;;10.13;;
16115;SDS011;8162;47.104;15.432;2023-12-20T18:16:24;15.93;;;10.77;;
16115;SDS011;8162;47.104;15.432;2023-12-20T18:19:25;13.57;;;8.57;;
16115;SDS011;8162;47.104;15.432;2023-12-20T18:22:26;16.10;;;9.93;;